This is the latest recevied weather packets stored in our database for station/object OE-11272. If no packets are shown the sender has not sent any weather packets the latest 10 day(s).
| Time | Temp. | Humidity | Pressure | Rain* | Wind** | Luminosity | Snow |
|---|---|---|---|---|---|---|---|
| 1787660136 | 18.89° C | 85% | 1012.5 hPa | 0.25 mm | - | 319 W/m² | - |
| 1787659524 | 18.89° C | 84% | 1012.6 hPa | 0 mm | - | 269 W/m² | - |
| 1787658924 | 18.89° C | 86% | 1012.6 hPa | 0 mm | - | 250 W/m² | - |
| 1787658097 | 18.89° C | 86% | 1012.6 hPa | 0 mm | - | 275 W/m² | - |
| 1787657723 | 18.33° C | 83% | 1012.6 hPa | 0 mm | - | 350 W/m² | - |
| 1787657123 | 18.33° C | 87% | 1012.7 hPa | 0 mm | - | 294 W/m² | - |
| 1787654496 | 17.78° C | 89% | 1012.9 hPa | 0 mm | - | 287 W/m² | - |
| 1787651722 | 16.67° C | 96% | 1013.3 hPa | 0.25 mm | - | 175 W/m² | - |
| 1787650896 | 16.67° C | 96% | 1013.4 hPa | 0.25 mm | - | 169 W/m² | - |
| 1787650523 | 16.67° C | 95% | 1013.5 hPa | 0.25 mm | - | 237 W/m² | - |
| 1787649923 | 16.67° C | 95% | 1013.5 hPa | 0.25 mm | - | 194 W/m² | - |
| 1787649095 | 16.11° C | 98% | 1013.7 hPa | 0.25 mm | - | 162 W/m² | - |
| 1787648723 | 16.11° C | 98% | 1013.8 hPa | 0.25 mm | - | 150 W/m² | - |
| 1787648123 | 16.11° C | 98% | 1013.8 hPa | 0 mm | - | 144 W/m² | - |
| 1787647295 | 16.67° C | 98% | 1013.7 hPa | 0.51 mm | - | 169 W/m² | - |
| 1787646923 | 16.67° C | 98% | 1013.7 hPa | 0.51 mm | - | 206 W/m² | - |
| 1787646323 | 16.67° C | 97% | 1013.7 hPa | 0.76 mm | - | 206 W/m² | - |
| 1787645495 | 16.11° C | 95% | 1013.8 hPa | 1.02 mm | - | 156 W/m² | - |
| 1787645123 | 16.11° C | 95% | 1013.8 hPa | 1.52 mm | - | 150 W/m² | - |
| 1787644523 | 16.11° C | 95% | 1013.8 hPa | 1.78 mm | - | 162 W/m² | - |
| 1787643697 | 15.56° C | 97% | 1013.9 hPa | 2.29 mm | - | 150 W/m² | - |
| 1787643324 | 15.56° C | 98% | 1014 hPa | 2.29 mm | - | 69 W/m² | - |
| 1787642724 | 15.56° C | 99% | 1014 hPa | 2.29 mm | - | 62 W/m² | - |
| 1787641897 | 15° C | 100% | 1014.1 hPa | 2.29 mm | - | 62 W/m² | - |
| 1787641524 | 15° C | 98% | 1014.2 hPa | 2.03 mm | - | 50 W/m² | - |
* Rain latest hour (hover to see other rain measurements)
** Current wind speed in m/s (hover to see current wind gust speed)